sensor_id;sensor_type;location;lat;lon;timestamp;temperature;humidity
8422;DHT22;4248;48.196;10.924;2023-04-03T00:02:09;3.70;56.90
8422;DHT22;4248;48.196;10.924;2023-04-03T00:04:35;3.70;56.70
8422;DHT22;4248;48.196;10.924;2023-04-03T00:07:00;3.60;56.80
8422;DHT22;4248;48.196;10.924;2023-04-03T00:09:26;3.60;56.80
8422;DHT22;4248;48.196;10.924;2023-04-03T00:11:51;3.60;56.80
8422;DHT22;4248;48.196;10.924;2023-04-03T00:14:17;3.60;57.00
8422;DHT22;4248;48.196;10.924;2023-04-03T00:16:43;3.70;56.90
8422;DHT22;4248;48.196;10.924;2023-04-03T00:19:08;3.80;56.60
8422;DHT22;4248;48.196;10.924;2023-04-03T00:21:37;3.80;56.60
8422;DHT22;4248;48.196;10.924;2023-04-03T00:24:02;3.70;56.60
8422;DHT22;4248;48.196;10.924;2023-04-03T00:26:28;3.70;56.70
8422;DHT22;4248;48.196;10.924;2023-04-03T00:28:54;3.70;57.00
8422;DHT22;4248;48.196;10.924;2023-04-03T00:31:19;3.60;57.20
8422;DHT22;4248;48.196;10.924;2023-04-03T00:33:45;3.60;57.30
8422;DHT22;4248;48.196;10.924;2023-04-03T00:36:12;3.60;58.40
8422;DHT22;4248;48.196;10.924;2023-04-03T00:38:38;3.60;57.30
8422;DHT22;4248;48.196;10.924;2023-04-03T00:41:04;3.60;57.50
8422;DHT22;4248;48.196;10.924;2023-04-03T00:43:30;3.50;57.60
8422;DHT22;4248;48.196;10.924;2023-04-03T00:45:57;3.50;57.50
8422;DHT22;4248;48.196;10.924;2023-04-03T00:48:40;3.60;57.40
8422;DHT22;4248;48.196;10.924;2023-04-03T00:51:10;3.60;57.20
8422;DHT22;4248;48.196;10.924;2023-04-03T00:53:40;3.70;57.10
8422;DHT22;4248;48.196;10.924;2023-04-03T00:56:09;3.60;57.20
8422;DHT22;4248;48.196;10.924;2023-04-03T00:58:54;3.50;57.50
8422;DHT22;4248;48.196;10.924;2023-04-03T01:01:24;3.50;57.60
8422;DHT22;4248;48.196;10.924;2023-04-03T01:03:50;3.50;57.70
8422;DHT22;4248;48.196;10.924;2023-04-03T01:06:17;3.50;57.60
8422;DHT22;4248;48.196;10.924;2023-04-03T01:08:45;3.40;57.60
8422;DHT22;4248;48.196;10.924;2023-04-03T01:11:13;3.50;57.60
8422;DHT22;4248;48.196;10.924;2023-04-03T01:13:38;3.50;57.70
8422;DHT22;4248;48.196;10.924;2023-04-03T01:16:06;3.50;57.50
8422;DHT22;4248;48.196;10.924;2023-04-03T01:18:35;3.60;57.50
8422;DHT22;4248;48.196;10.924;2023-04-03T01:26:34;3.50;57.20
8422;DHT22;4248;48.196;10.924;2023-04-03T01:29:04;3.50;57.20
8422;DHT22;4248;48.196;10.924;2023-04-03T01:34:01;3.50;57.00
8422;DHT22;4248;48.196;10.924;2023-04-03T01:36:29;3.50;56.70
8422;DHT22;4248;48.196;10.924;2023-04-03T01:38:57;3.50;56.70
8422;DHT22;4248;48.196;10.924;2023-04-03T01:41:24;3.70;56.60
8422;DHT22;4248;48.196;10.924;2023-04-03T01:43:51;3.50;56.70
8422;DHT22;4248;48.196;10.924;2023-04-03T01:46:17;3.50;56.60
8422;DHT22;4248;48.196;10.924;2023-04-03T01:48:43;3.40;56.60
8422;DHT22;4248;48.196;10.924;2023-04-03T01:51:09;3.40;56.60
8422;DHT22;4248;48.196;10.924;2023-04-03T01:53:35;3.50;56.40
8422;DHT22;4248;48.196;10.924;2023-04-03T01:56:01;3.50;56.30
8422;DHT22;4248;48.196;10.924;2023-04-03T01:58:27;3.60;56.30
8422;DHT22;4248;48.196;10.924;2023-04-03T02:00:52;3.60;56.20
8422;DHT22;4248;48.196;10.924;2023-04-03T02:03:18;3.60;56.10
8422;DHT22;4248;48.196;10.924;2023-04-03T02:05:44;3.60;56.10
8422;DHT22;4248;48.196;10.924;2023-04-03T02:08:10;3.60;56.10
8422;DHT22;4248;48.196;10.924;2023-04-03T02:10:36;3.50;56.20
8422;DHT22;4248;48.196;10.924;2023-04-03T02:13:02;3.50;56.10
8422;DHT22;4248;48.196;10.924;2023-04-03T02:15:27;3.50;56.20
8422;DHT22;4248;48.196;10.924;2023-04-03T02:17:53;3.40;56.40
8422;DHT22;4248;48.196;10.924;2023-04-03T02:20:19;3.40;56.60
8422;DHT22;4248;48.196;10.924;2023-04-03T02:22:45;3.40;56.60
8422;DHT22;4248;48.196;10.924;2023-04-03T02:25:10;3.40;56.40
8422;DHT22;4248;48.196;10.924;2023-04-03T02:27:37;3.50;56.50
8422;DHT22;4248;48.196;10.924;2023-04-03T02:30:03;3.40;56.60
8422;DHT22;4248;48.196;10.924;2023-04-03T02:32:29;3.40;56.50
8422;DHT22;4248;48.196;10.924;2023-04-03T02:34:55;3.40;56.60
8422;DHT22;4248;48.196;10.924;2023-04-03T02:37:21;3.40;56.70
8422;DHT22;4248;48.196;10.924;2023-04-03T02:39:47;3.40;56.70
8422;DHT22;4248;48.196;10.924;2023-04-03T02:42:13;3.40;56.70
8422;DHT22;4248;48.196;10.924;2023-04-03T02:44:38;3.40;56.60
8422;DHT22;4248;48.196;10.924;2023-04-03T02:47:04;3.40;56.60
8422;DHT22;4248;48.196;10.924;2023-04-03T02:49:30;3.40;56.70
8422;DHT22;4248;48.196;10.924;2023-04-03T02:51:56;3.40;56.90
8422;DHT22;4248;48.196;10.924;2023-04-03T02:54:22;3.40;56.60
8422;DHT22;4248;48.196;10.924;2023-04-03T02:56:48;3.40;56.80
8422;DHT22;4248;48.196;10.924;2023-04-03T02:59:14;3.30;57.10
8422;DHT22;4248;48.196;10.924;2023-04-03T03:01:40;3.30;57.00
8422;DHT22;4248;48.196;10.924;2023-04-03T03:04:06;3.30;57.20
8422;DHT22;4248;48.196;10.924;2023-04-03T03:06:32;3.20;57.50
8422;DHT22;4248;48.196;10.924;2023-04-03T03:08:57;3.20;57.80
8422;DHT22;4248;48.196;10.924;2023-04-03T03:11:23;3.20;57.60
8422;DHT22;4248;48.196;10.924;2023-04-03T03:13:48;3.20;57.80
8422;DHT22;4248;48.196;10.924;2023-04-03T03:16:14;3.10;57.80
8422;DHT22;4248;48.196;10.924;2023-04-03T03:18:40;3.10;58.00
8422;DHT22;4248;48.196;10.924;2023-04-03T03:21:06;3.00;58.20
8422;DHT22;4248;48.196;10.924;2023-04-03T03:23:32;3.10;58.20
8422;DHT22;4248;48.196;10.924;2023-04-03T03:26:00;3.20;57.90
8422;DHT22;4248;48.196;10.924;2023-04-03T03:28:27;3.20;57.90
8422;DHT22;4248;48.196;10.924;2023-04-03T03:30:53;3.20;57.80
8422;DHT22;4248;48.196;10.924;2023-04-03T03:33:18;3.20;57.80
8422;DHT22;4248;48.196;10.924;2023-04-03T03:35:45;3.10;57.80
8422;DHT22;4248;48.196;10.924;2023-04-03T03:38:11;3.10;58.20
8422;DHT22;4248;48.196;10.924;2023-04-03T03:40:37;3.20;58.20
8422;DHT22;4248;48.196;10.924;2023-04-03T03:43:03;3.20;58.30
8422;DHT22;4248;48.196;10.924;2023-04-03T03:45:28;3.20;58.20
8422;DHT22;4248;48.196;10.924;2023-04-03T03:47:54;3.20;58.10
8422;DHT22;4248;48.196;10.924;2023-04-03T03:50:20;3.20;58.20
8422;DHT22;4248;48.196;10.924;2023-04-03T03:52:46;3.20;58.20
8422;DHT22;4248;48.196;10.924;2023-04-03T03:55:12;3.20;58.10
8422;DHT22;4248;48.196;10.924;2023-04-03T03:57:38;3.20;57.90
8422;DHT22;4248;48.196;10.924;2023-04-03T04:00:04;3.20;58.00
8422;DHT22;4248;48.196;10.924;2023-04-03T04:02:30;3.20;58.00
8422;DHT22;4248;48.196;10.924;2023-04-03T04:04:56;3.20;58.30
8422;DHT22;4248;48.196;10.924;2023-04-03T04:07:21;3.10;58.60
8422;DHT22;4248;48.196;10.924;2023-04-03T04:09:48;3.20;58.40
8422;DHT22;4248;48.196;10.924;2023-04-03T04:12:13;3.30;58.20
8422;DHT22;4248;48.196;10.924;2023-04-03T04:14:39;3.30;58.10
8422;DHT22;4248;48.196;10.924;2023-04-03T04:17:05;3.30;58.00
8422;DHT22;4248;48.196;10.924;2023-04-03T04:19:31;3.30;58.00
8422;DHT22;4248;48.196;10.924;2023-04-03T04:21:56;3.30;58.30
8422;DHT22;4248;48.196;10.924;2023-04-03T04:24:22;3.20;58.30
8422;DHT22;4248;48.196;10.924;2023-04-03T04:26:48;3.20;58.40
8422;DHT22;4248;48.196;10.924;2023-04-03T04:29:14;3.20;58.50
8422;DHT22;4248;48.196;10.924;2023-04-03T04:31:39;3.10;58.80
8422;DHT22;4248;48.196;10.924;2023-04-03T04:34:05;3.10;58.80
8422;DHT22;4248;48.196;10.924;2023-04-03T04:36:31;3.10;58.80
8422;DHT22;4248;48.196;10.924;2023-04-03T04:38:56;3.10;58.80
8422;DHT22;4248;48.196;10.924;2023-04-03T04:41:23;3.10;58.90
8422;DHT22;4248;48.196;10.924;2023-04-03T04:43:50;3.10;59.10
8422;DHT22;4248;48.196;10.924;2023-04-03T04:46:16;3.00;59.40
8422;DHT22;4248;48.196;10.924;2023-04-03T04:48:41;3.00;59.40
8422;DHT22;4248;48.196;10.924;2023-04-03T04:51:07;3.10;59.50
8422;DHT22;4248;48.196;10.924;2023-04-03T04:53:33;3.10;59.10
8422;DHT22;4248;48.196;10.924;2023-04-03T04:55:58;3.20;59.00
8422;DHT22;4248;48.196;10.924;2023-04-03T04:58:24;3.10;59.00
8422;DHT22;4248;48.196;10.924;2023-04-03T05:00:58;3.20;59.20
8422;DHT22;4248;48.196;10.924;2023-04-03T05:03:23;3.30;58.80
8422;DHT22;4248;48.196;10.924;2023-04-03T05:05:49;3.30;58.80
8422;DHT22;4248;48.196;10.924;2023-04-03T05:08:15;3.30;58.70
8422;DHT22;4248;48.196;10.924;2023-04-03T05:10:40;3.30;60.00
8422;DHT22;4248;48.196;10.924;2023-04-03T05:13:07;3.20;59.20
8422;DHT22;4248;48.196;10.924;2023-04-03T05:15:32;3.20;59.50
8422;DHT22;4248;48.196;10.924;2023-04-03T05:17:58;3.20;59.20
8422;DHT22;4248;48.196;10.924;2023-04-03T05:20:24;3.20;59.10
8422;DHT22;4248;48.196;10.924;2023-04-03T05:22:50;3.30;58.90
8422;DHT22;4248;48.196;10.924;2023-04-03T05:25:16;3.30;59.20
8422;DHT22;4248;48.196;10.924;2023-04-03T05:27:41;3.30;59.20
8422;DHT22;4248;48.196;10.924;2023-04-03T05:30:08;3.30;59.10
8422;DHT22;4248;48.196;10.924;2023-04-03T05:32:33;3.40;59.10
8422;DHT22;4248;48.196;10.924;2023-04-03T05:34:59;3.40;58.70
8422;DHT22;4248;48.196;10.924;2023-04-03T05:37:25;3.40;58.70
8422;DHT22;4248;48.196;10.924;2023-04-03T05:39:50;3.40;58.70
8422;DHT22;4248;48.196;10.924;2023-04-03T05:42:16;3.40;58.80
8422;DHT22;4248;48.196;10.924;2023-04-03T05:44:42;3.30;58.80
8422;DHT22;4248;48.196;10.924;2023-04-03T05:47:08;3.30;59.10
8422;DHT22;4248;48.196;10.924;2023-04-03T05:49:34;3.40;59.10
8422;DHT22;4248;48.196;10.924;2023-04-03T05:52:00;3.40;58.90
8422;DHT22;4248;48.196;10.924;2023-04-03T05:54:28;3.40;59.00
8422;DHT22;4248;48.196;10.924;2023-04-03T05:56:55;3.30;59.20
8422;DHT22;4248;48.196;10.924;2023-04-03T05:59:21;3.30;59.30
8422;DHT22;4248;48.196;10.924;2023-04-03T06:01:47;3.40;59.30
8422;DHT22;4248;48.196;10.924;2023-04-03T06:04:13;3.30;59.40
8422;DHT22;4248;48.196;10.924;2023-04-03T06:06:56;3.30;59.30
8422;DHT22;4248;48.196;10.924;2023-04-03T06:09:25;3.40;59.10
8422;DHT22;4248;48.196;10.924;2023-04-03T06:11:52;3.40;59.20
8422;DHT22;4248;48.196;10.924;2023-04-03T06:14:18;3.30;59.20
8422;DHT22;4248;48.196;10.924;2023-04-03T06:16:44;3.40;59.10
8422;DHT22;4248;48.196;10.924;2023-04-03T06:19:10;3.50;59.00
8422;DHT22;4248;48.196;10.924;2023-04-03T06:21:37;3.50;58.90
8422;DHT22;4248;48.196;10.924;2023-04-03T06:24:04;3.50;58.70
8422;DHT22;4248;48.196;10.924;2023-04-03T06:26:30;3.50;58.80
8422;DHT22;4248;48.196;10.924;2023-04-03T06:28:55;3.60;58.80
8422;DHT22;4248;48.196;10.924;2023-04-03T06:31:21;3.70;58.40
8422;DHT22;4248;48.196;10.924;2023-04-03T06:33:47;3.80;58.20
8422;DHT22;4248;48.196;10.924;2023-04-03T06:36:13;3.80;58.00
8422;DHT22;4248;48.196;10.924;2023-04-03T06:38:39;3.90;57.80
8422;DHT22;4248;48.196;10.924;2023-04-03T06:41:04;4.00;57.60
8422;DHT22;4248;48.196;10.924;2023-04-03T06:43:30;4.10;57.60
8422;DHT22;4248;48.196;10.924;2023-04-03T06:45:58;4.10;57.60
8422;DHT22;4248;48.196;10.924;2023-04-03T06:48:24;4.10;57.40
8422;DHT22;4248;48.196;10.924;2023-04-03T06:50:50;4.00;57.20
8422;DHT22;4248;48.196;10.924;2023-04-03T06:53:15;4.10;57.40
8422;DHT22;4248;48.196;10.924;2023-04-03T06:55:41;4.10;57.20
8422;DHT22;4248;48.196;10.924;2023-04-03T06:58:07;4.20;56.90
8422;DHT22;4248;48.196;10.924;2023-04-03T07:00:33;4.20;56.50
8422;DHT22;4248;48.196;10.924;2023-04-03T07:02:59;4.40;56.40
8422;DHT22;4248;48.196;10.924;2023-04-03T07:05:25;4.40;56.10
8422;DHT22;4248;48.196;10.924;2023-04-03T07:07:51;4.30;56.20
8422;DHT22;4248;48.196;10.924;2023-04-03T07:10:17;4.30;56.20
8422;DHT22;4248;48.196;10.924;2023-04-03T07:12:43;4.50;56.00
8422;DHT22;4248;48.196;10.924;2023-04-03T07:15:09;4.60;55.70
8422;DHT22;4248;48.196;10.924;2023-04-03T07:17:35;4.70;55.30
8422;DHT22;4248;48.196;10.924;2023-04-03T07:20:02;4.80;55.00
8422;DHT22;4248;48.196;10.924;2023-04-03T07:22:28;4.90;54.60
8422;DHT22;4248;48.196;10.924;2023-04-03T07:24:53;5.00;54.50
8422;DHT22;4248;48.196;10.924;2023-04-03T07:27:19;5.20;53.60
8422;DHT22;4248;48.196;10.924;2023-04-03T07:29:45;5.30;53.50
8422;DHT22;4248;48.196;10.924;2023-04-03T07:32:10;5.40;53.20
8422;DHT22;4248;48.196;10.924;2023-04-03T07:34:37;5.50;53.00
8422;DHT22;4248;48.196;10.924;2023-04-03T07:37:03;5.50;52.20
8422;DHT22;4248;48.196;10.924;2023-04-03T07:39:29;5.50;52.00
8422;DHT22;4248;48.196;10.924;2023-04-03T07:41:54;5.30;52.20
8422;DHT22;4248;48.196;10.924;2023-04-03T07:44:23;5.40;52.60
8422;DHT22;4248;48.196;10.924;2023-04-03T07:46:48;5.40;52.10
8422;DHT22;4248;48.196;10.924;2023-04-03T07:49:16;5.20;52.10
8422;DHT22;4248;48.196;10.924;2023-04-03T07:51:43;5.20;52.20
8422;DHT22;4248;48.196;10.924;2023-04-03T07:54:09;5.40;51.80
8422;DHT22;4248;48.196;10.924;2023-04-03T07:56:35;5.50;51.70
8422;DHT22;4248;48.196;10.924;2023-04-03T07:59:00;5.50;51.30
8422;DHT22;4248;48.196;10.924;2023-04-03T08:01:26;5.50;50.70
8422;DHT22;4248;48.196;10.924;2023-04-03T08:03:52;5.40;50.50
8422;DHT22;4248;48.196;10.924;2023-04-03T08:06:17;5.60;50.50
8422;DHT22;4248;48.196;10.924;2023-04-03T08:08:43;5.70;49.90
8422;DHT22;4248;48.196;10.924;2023-04-03T08:11:10;5.70;49.70
8422;DHT22;4248;48.196;10.924;2023-04-03T08:13:36;5.60;48.80
8422;DHT22;4248;48.196;10.924;2023-04-03T08:16:09;5.90;49.10
8422;DHT22;4248;48.196;10.924;2023-04-03T08:18:35;5.90;49.10
8422;DHT22;4248;48.196;10.924;2023-04-03T08:21:04;5.90;49.10
8422;DHT22;4248;48.196;10.924;2023-04-03T08:23:30;5.90;48.50
8422;DHT22;4248;48.196;10.924;2023-04-03T08:25:56;6.00;48.40
8422;DHT22;4248;48.196;10.924;2023-04-03T08:28:21;6.10;47.80
8422;DHT22;4248;48.196;10.924;2023-04-03T08:30:47;6.20;47.90
8422;DHT22;4248;48.196;10.924;2023-04-03T08:33:12;6.20;47.70
8422;DHT22;4248;48.196;10.924;2023-04-03T08:35:39;6.30;47.40
8422;DHT22;4248;48.196;10.924;2023-04-03T08:38:06;6.30;47.60
8422;DHT22;4248;48.196;10.924;2023-04-03T08:40:31;6.30;47.30
8422;DHT22;4248;48.196;10.924;2023-04-03T08:46:05;6.00;47.40
8422;DHT22;4248;48.196;10.924;2023-04-03T08:48:34;6.10;47.20
8422;DHT22;4248;48.196;10.924;2023-04-03T08:51:04;6.50;46.80
8422;DHT22;4248;48.196;10.924;2023-04-03T08:53:40;6.50;46.30
8422;DHT22;4248;48.196;10.924;2023-04-03T08:56:09;6.40;46.20
8422;DHT22;4248;48.196;10.924;2023-04-03T08:58:47;6.40;45.50
8422;DHT22;4248;48.196;10.924;2023-04-03T09:01:27;6.30;45.80
8422;DHT22;4248;48.196;10.924;2023-04-03T09:03:55;6.40;45.80
8422;DHT22;4248;48.196;10.924;2023-04-03T09:09:12;6.60;45.20
8422;DHT22;4248;48.196;10.924;2023-04-03T09:17:21;7.00;43.80
8422;DHT22;4248;48.196;10.924;2023-04-03T09:19:57;7.20;42.70
8422;DHT22;4248;48.196;10.924;2023-04-03T09:22:28;7.20;42.60
8422;DHT22;4248;48.196;10.924;2023-04-03T09:25:15;7.30;41.60
8422;DHT22;4248;48.196;10.924;2023-04-03T09:27:41;7.10;41.40
8422;DHT22;4248;48.196;10.924;2023-04-03T09:30:16;7.40;41.70
8422;DHT22;4248;48.196;10.924;2023-04-03T09:32:45;7.50;40.90
8422;DHT22;4248;48.196;10.924;2023-04-03T09:35:32;7.50;40.30
8422;DHT22;4248;48.196;10.924;2023-04-03T09:38:02;7.40;40.60
8422;DHT22;4248;48.196;10.924;2023-04-03T09:40:42;7.40;40.00
8422;DHT22;4248;48.196;10.924;2023-04-03T09:45:44;7.30;39.20
8422;DHT22;4248;48.196;10.924;2023-04-03T09:50:59;7.20;37.70
8422;DHT22;4248;48.196;10.924;2023-04-03T09:53:43;7.40;37.90
8422;DHT22;4248;48.196;10.924;2023-04-03T09:59:13;7.60;35.80
8422;DHT22;4248;48.196;10.924;2023-04-03T10:01:43;7.70;36.80
8422;DHT22;4248;48.196;10.924;2023-04-03T10:04:18;7.50;36.60
8422;DHT22;4248;48.196;10.924;2023-04-03T10:06:54;7.50;36.80
8422;DHT22;4248;48.196;10.924;2023-04-03T10:09:23;7.40;36.20
8422;DHT22;4248;48.196;10.924;2023-04-03T10:12:10;7.50;37.20
8422;DHT22;4248;48.196;10.924;2023-04-03T10:20:10;7.40;36.50
8422;DHT22;4248;48.196;10.924;2023-04-03T10:32:16;7.20;34.40
8422;DHT22;4248;48.196;10.924;2023-04-03T10:34:54;7.50;33.90
8422;DHT22;4248;48.196;10.924;2023-04-03T10:37:38;7.70;33.10
8422;DHT22;4248;48.196;10.924;2023-04-03T10:40:36;8.00;33.50
8422;DHT22;4248;48.196;10.924;2023-04-03T10:52:09;7.60;33.10
8422;DHT22;4248;48.196;10.924;2023-04-03T10:55:24;7.70;33.20
8422;DHT22;4248;48.196;10.924;2023-04-03T10:57:42;7.60;33.50
8422;DHT22;4248;48.196;10.924;2023-04-03T11:00:33;7.40;33.40
8422;DHT22;4248;48.196;10.924;2023-04-03T11:03:36;7.40;33.60
8422;DHT22;4248;48.196;10.924;2023-04-03T11:06:10;7.70;32.90
8422;DHT22;4248;48.196;10.924;2023-04-03T11:08:44;7.70;33.00
8422;DHT22;4248;48.196;10.924;2023-04-03T11:11:15;7.60;32.90
8422;DHT22;4248;48.196;10.924;2023-04-03T11:16:31;7.40;33.80
8422;DHT22;4248;48.196;10.924;2023-04-03T11:19:31;7.10;34.10
8422;DHT22;4248;48.196;10.924;2023-04-03T11:22:22;6.90;34.80
8422;DHT22;4248;48.196;10.924;2023-04-03T11:25:14;6.90;34.80
8422;DHT22;4248;48.196;10.924;2023-04-03T11:27:45;7.00;34.80
8422;DHT22;4248;48.196;10.924;2023-04-03T11:35:29;6.70;35.00
8422;DHT22;4248;48.196;10.924;2023-04-03T11:37:56;6.50;35.50
8422;DHT22;4248;48.196;10.924;2023-04-03T11:40:26;6.60;35.80
8422;DHT22;4248;48.196;10.924;2023-04-03T12:05:52;6.90;34.80
8422;DHT22;4248;48.196;10.924;2023-04-03T12:16:33;6.50;36.30
8422;DHT22;4248;48.196;10.924;2023-04-03T12:23:59;6.70;35.80
8422;DHT22;4248;48.196;10.924;2023-04-03T12:29:26;6.70;36.10
8422;DHT22;4248;48.196;10.924;2023-04-03T12:41:19;6.50;36.40
8422;DHT22;4248;48.196;10.924;2023-04-03T12:46:42;6.80;36.20
8422;DHT22;4248;48.196;10.924;2023-04-03T12:49:37;6.50;36.40
8422;DHT22;4248;48.196;10.924;2023-04-03T12:52:52;6.10;36.10
8422;DHT22;4248;48.196;10.924;2023-04-03T12:55:20;5.80;37.30
8422;DHT22;4248;48.196;10.924;2023-04-03T12:57:46;5.80;37.60
8422;DHT22;4248;48.196;10.924;2023-04-03T13:00:20;5.70;37.80
8422;DHT22;4248;48.196;10.924;2023-04-03T13:02:46;5.50;38.80
8422;DHT22;4248;48.196;10.924;2023-04-03T13:05:18;5.40;39.30
8422;DHT22;4248;48.196;10.924;2023-04-03T13:07:49;5.50;38.90
8422;DHT22;4248;48.196;10.924;2023-04-03T13:10:18;5.70;38.30
8422;DHT22;4248;48.196;10.924;2023-04-03T13:15:18;6.20;36.90
8422;DHT22;4248;48.196;10.924;2023-04-03T13:17:45;6.50;36.50
8422;DHT22;4248;48.196;10.924;2023-04-03T13:20:29;6.80;35.90
8422;DHT22;4248;48.196;10.924;2023-04-03T13:23:07;7.10;35.40
8422;DHT22;4248;48.196;10.924;2023-04-03T13:25:36;7.20;34.30
8422;DHT22;4248;48.196;10.924;2023-04-03T13:28:05;7.30;33.70
8422;DHT22;4248;48.196;10.924;2023-04-03T13:30:34;7.40;31.50
8422;DHT22;4248;48.196;10.924;2023-04-03T13:33:04;7.30;31.20
8422;DHT22;4248;48.196;10.924;2023-04-03T13:35:37;7.40;31.50
8422;DHT22;4248;48.196;10.924;2023-04-03T13:38:25;7.70;30.70
8422;DHT22;4248;48.196;10.924;2023-04-03T13:40:54;7.80;30.70
8422;DHT22;4248;48.196;10.924;2023-04-03T13:43:35;7.90;29.90
8422;DHT22;4248;48.196;10.924;2023-04-03T13:48:44;7.80;29.70
8422;DHT22;4248;48.196;10.924;2023-04-03T13:56:38;8.00;28.80
8422;DHT22;4248;48.196;10.924;2023-04-03T14:04:23;8.20;27.10
8422;DHT22;4248;48.196;10.924;2023-04-03T14:06:49;8.20;27.10
8422;DHT22;4248;48.196;10.924;2023-04-03T14:09:17;8.30;26.50
8422;DHT22;4248;48.196;10.924;2023-04-03T14:11:44;8.20;25.70
8422;DHT22;4248;48.196;10.924;2023-04-03T14:14:23;7.90;26.20
8422;DHT22;4248;48.196;10.924;2023-04-03T14:16:54;7.50;26.50
8422;DHT22;4248;48.196;10.924;2023-04-03T14:19:27;7.10;26.30
8422;DHT22;4248;48.196;10.924;2023-04-03T14:21:55;6.90;26.60
8422;DHT22;4248;48.196;10.924;2023-04-03T14:24:22;6.80;26.30
8422;DHT22;4248;48.196;10.924;2023-04-03T14:26:49;6.90;26.60
8422;DHT22;4248;48.196;10.924;2023-04-03T14:29:15;6.90;26.00
8422;DHT22;4248;48.196;10.924;2023-04-03T14:31:43;6.80;26.10
8422;DHT22;4248;48.196;10.924;2023-04-03T14:34:10;6.90;25.60
8422;DHT22;4248;48.196;10.924;2023-04-03T14:36:37;6.80;25.10
8422;DHT22;4248;48.196;10.924;2023-04-03T14:39:04;6.80;25.20
8422;DHT22;4248;48.196;10.924;2023-04-03T14:41:32;6.70;25.40
8422;DHT22;4248;48.196;10.924;2023-04-03T14:43:57;6.60;25.20
8422;DHT22;4248;48.196;10.924;2023-04-03T14:46:33;6.70;25.40
8422;DHT22;4248;48.196;10.924;2023-04-03T14:49:00;6.70;24.80
8422;DHT22;4248;48.196;10.924;2023-04-03T14:51:26;6.70;25.30
8422;DHT22;4248;48.196;10.924;2023-04-03T14:53:52;6.80;25.20
8422;DHT22;4248;48.196;10.924;2023-04-03T14:56:23;6.90;24.90
8422;DHT22;4248;48.196;10.924;2023-04-03T14:58:54;7.00;24.90
8422;DHT22;4248;48.196;10.924;2023-04-03T15:01:20;7.00;24.90
8422;DHT22;4248;48.196;10.924;2023-04-03T15:03:46;7.00;24.90
8422;DHT22;4248;48.196;10.924;2023-04-03T15:06:13;7.00;24.80
8422;DHT22;4248;48.196;10.924;2023-04-03T15:08:40;6.80;22.80
8422;DHT22;4248;48.196;10.924;2023-04-03T15:11:08;6.90;22.70
8422;DHT22;4248;48.196;10.924;2023-04-03T15:13:33;7.00;22.20
8422;DHT22;4248;48.196;10.924;2023-04-03T15:15:59;7.20;22.10
8422;DHT22;4248;48.196;10.924;2023-04-03T15:18:27;7.30;21.00
8422;DHT22;4248;48.196;10.924;2023-04-03T15:20:54;7.30;20.40
8422;DHT22;4248;48.196;10.924;2023-04-03T15:23:20;7.50;20.40
8422;DHT22;4248;48.196;10.924;2023-04-03T15:25:51;7.60;20.20
8422;DHT22;4248;48.196;10.924;2023-04-03T15:28:35;7.60;20.10
8422;DHT22;4248;48.196;10.924;2023-04-03T15:31:01;7.60;20.20
8422;DHT22;4248;48.196;10.924;2023-04-03T15:33:27;7.50;19.90
8422;DHT22;4248;48.196;10.924;2023-04-03T15:35:53;7.30;20.30
8422;DHT22;4248;48.196;10.924;2023-04-03T15:38:19;7.00;20.70
8422;DHT22;4248;48.196;10.924;2023-04-03T15:40:45;6.80;20.70
8422;DHT22;4248;48.196;10.924;2023-04-03T15:43:12;6.60;21.60
8422;DHT22;4248;48.196;10.924;2023-04-03T15:45:38;6.40;20.80
8422;DHT22;4248;48.196;10.924;2023-04-03T15:48:05;6.30;21.30
8422;DHT22;4248;48.196;10.924;2023-04-03T15:50:32;6.20;21.00
8422;DHT22;4248;48.196;10.924;2023-04-03T15:52:59;6.10;21.00
8422;DHT22;4248;48.196;10.924;2023-04-03T15:55:26;6.10;20.90
8422;DHT22;4248;48.196;10.924;2023-04-03T15:57:52;6.20;20.70
8422;DHT22;4248;48.196;10.924;2023-04-03T16:00:19;6.40;20.20
8422;DHT22;4248;48.196;10.924;2023-04-03T16:02:46;6.50;19.60
8422;DHT22;4248;48.196;10.924;2023-04-03T16:05:12;6.70;18.90
8422;DHT22;4248;48.196;10.924;2023-04-03T16:07:39;6.70;18.00
8422;DHT22;4248;48.196;10.924;2023-04-03T16:10:07;6.80;18.20
8422;DHT22;4248;48.196;10.924;2023-04-03T16:12:33;6.80;18.00
8422;DHT22;4248;48.196;10.924;2023-04-03T16:14:58;6.90;17.50
8422;DHT22;4248;48.196;10.924;2023-04-03T16:17:26;7.00;17.10
8422;DHT22;4248;48.196;10.924;2023-04-03T16:19:52;6.90;16.90
8422;DHT22;4248;48.196;10.924;2023-04-03T16:22:18;6.90;16.70
8422;DHT22;4248;48.196;10.924;2023-04-03T16:24:44;6.90;17.10
8422;DHT22;4248;48.196;10.924;2023-04-03T16:27:10;7.00;17.30
8422;DHT22;4248;48.196;10.924;2023-04-03T16:29:35;6.80;17.50
8422;DHT22;4248;48.196;10.924;2023-04-03T16:32:02;6.70;17.70
8422;DHT22;4248;48.196;10.924;2023-04-03T16:34:28;6.70;17.70
8422;DHT22;4248;48.196;10.924;2023-04-03T16:36:55;6.60;17.60
8422;DHT22;4248;48.196;10.924;2023-04-03T16:39:21;6.50;17.50
8422;DHT22;4248;48.196;10.924;2023-04-03T16:41:46;6.50;17.40
8422;DHT22;4248;48.196;10.924;2023-04-03T16:44:12;6.40;17.60
8422;DHT22;4248;48.196;10.924;2023-04-03T16:46:38;6.30;17.20
8422;DHT22;4248;48.196;10.924;2023-04-03T16:49:04;6.10;17.60
8422;DHT22;4248;48.196;10.924;2023-04-03T16:51:30;6.00;17.60
8422;DHT22;4248;48.196;10.924;2023-04-03T16:53:57;5.90;18.10
8422;DHT22;4248;48.196;10.924;2023-04-03T16:56:23;5.80;18.30
8422;DHT22;4248;48.196;10.924;2023-04-03T16:58:48;5.80;18.70
8422;DHT22;4248;48.196;10.924;2023-04-03T17:01:17;5.70;18.90
8422;DHT22;4248;48.196;10.924;2023-04-03T17:03:43;5.60;19.10
8422;DHT22;4248;48.196;10.924;2023-04-03T17:06:11;5.50;19.10
8422;DHT22;4248;48.196;10.924;2023-04-03T17:08:42;5.50;19.10
8422;DHT22;4248;48.196;10.924;2023-04-03T17:11:08;5.40;19.20
8422;DHT22;4248;48.196;10.924;2023-04-03T17:13:34;5.30;19.40
8422;DHT22;4248;48.196;10.924;2023-04-03T17:16:01;5.30;19.60
8422;DHT22;4248;48.196;10.924;2023-04-03T17:18:30;5.20;20.00
8422;DHT22;4248;48.196;10.924;2023-04-03T17:20:56;5.00;19.80
8422;DHT22;4248;48.196;10.924;2023-04-03T17:23:23;4.90;19.70
8422;DHT22;4248;48.196;10.924;2023-04-03T17:25:50;4.80;20.00
8422;DHT22;4248;48.196;10.924;2023-04-03T17:28:15;4.70;20.20
8422;DHT22;4248;48.196;10.924;2023-04-03T17:30:41;4.60;20.50
8422;DHT22;4248;48.196;10.924;2023-04-03T17:33:06;4.50;20.90
8422;DHT22;4248;48.196;10.924;2023-04-03T17:35:32;4.30;20.80
8422;DHT22;4248;48.196;10.924;2023-04-03T17:37:58;4.20;21.10
8422;DHT22;4248;48.196;10.924;2023-04-03T17:40:23;4.10;21.40
8422;DHT22;4248;48.196;10.924;2023-04-03T17:42:49;4.00;21.70
8422;DHT22;4248;48.196;10.924;2023-04-03T17:45:14;3.90;22.10
8422;DHT22;4248;48.196;10.924;2023-04-03T17:47:40;3.80;22.70
8422;DHT22;4248;48.196;10.924;2023-04-03T17:50:06;3.70;22.70
8422;DHT22;4248;48.196;10.924;2023-04-03T17:52:32;3.60;22.60
8422;DHT22;4248;48.196;10.924;2023-04-03T17:54:58;3.50;22.70
8422;DHT22;4248;48.196;10.924;2023-04-03T17:57:23;3.40;23.10
8422;DHT22;4248;48.196;10.924;2023-04-03T17:59:49;3.30;23.40
8422;DHT22;4248;48.196;10.924;2023-04-03T18:02:15;3.20;23.90
8422;DHT22;4248;48.196;10.924;2023-04-03T18:04:40;3.20;24.20
8422;DHT22;4248;48.196;10.924;2023-04-03T18:07:09;3.10;24.30
8422;DHT22;4248;48.196;10.924;2023-04-03T18:09:36;3.10;24.40
8422;DHT22;4248;48.196;10.924;2023-04-03T18:12:06;3.00;24.50
8422;DHT22;4248;48.196;10.924;2023-04-03T18:14:33;3.00;24.50
8422;DHT22;4248;48.196;10.924;2023-04-03T18:17:00;2.90;24.40